Time;durP1;ratioP1;P1;durP2;ratioP2;P2;SDS_P1;SDS_P2;PMS_P1;PMS_P2;Temp;Humidity;BMP_temperature;BMP_pressure;BME280_temperature;BME280_humidity;BME280_pressure;Samples;Min_cycle;Max_cycle;Signal;HPM_P1;HPM_P2
2023/07/14 00:01:19;;;;;;;4.93;1.88;;;;;;;;;;5047474;28;20045;-72
2023/07/14 00:03:45;;;;;;;5.70;1.60;;;;;;;;;;5050884;28;20017;-72
2023/07/14 00:06:14;;;;;;;2.70;1.42;;;;;;;;;;5047891;28;20459;-72
2023/07/14 00:08:40;;;;;;;4.35;1.50;;;;;;;;;;5049658;28;20021;-72
2023/07/14 00:11:16;;;;;;;3.22;1.45;;;;;;;;;;5050784;28;20037;-72
2023/07/14 00:13:41;;;;;;;8.93;1.65;;;;;;;;;;5049975;28;20021;-72
2023/07/14 00:16:14;;;;;;;3.92;1.73;;;;;;;;;;5050471;28;20032;-72
2023/07/14 00:18:39;;;;;;;4.45;2.13;;;;;;;;;;5050745;28;20029;-72
2023/07/14 00:21:04;;;;;;;8.63;1.90;;;;;;;;;;5049808;28;20113;-72
2023/07/14 00:23:29;;;;;;;7.45;1.80;;;;;;;;;;5051140;28;20100;-72
2023/07/14 00:25:55;;;;;;;6.72;1.75;;;;;;;;;;5051881;28;20083;-72
2023/07/14 00:28:21;;;;;;;8.63;1.92;;;;;;;;;;5050377;28;20025;-72
2023/07/14 00:30:47;;;;;;;3.00;1.60;;;;;;;;;;5046837;28;20494;-72
2023/07/14 00:33:13;;;;;;;8.05;1.80;;;;;;;;;;5050882;28;20032;-72
2023/07/14 00:35:38;;;;;;;5.68;1.95;;;;;;;;;;5050482;28;20071;-72
2023/07/14 00:38:03;;;;;;;11.73;2.00;;;;;;;;;;5050800;28;20032;-72
2023/07/14 00:40:31;;;;;;;4.70;1.80;;;;;;;;;;5045861;28;20303;-72
2023/07/14 00:42:57;;;;;;;3.45;1.60;;;;;;;;;;5048279;28;20269;-72
2023/07/14 00:45:24;;;;;;;10.73;2.25;;;;;;;;;;5048823;28;20017;-72
2023/07/14 00:47:52;;;;;;;6.30;1.42;;;;;;;;;;5052105;28;20020;-72
2023/07/14 00:50:30;;;;;;;6.10;2.13;;;;;;;;;;5051940;28;20012;-72
2023/07/14 00:52:56;;;;;;;7.55;1.88;;;;;;;;;;5046172;28;20028;-72
2023/07/14 00:55:39;;;;;;;3.78;1.80;;;;;;;;;;5049156;28;20150;-72
2023/07/14 00:58:09;;;;;;;7.32;1.92;;;;;;;;;;5047194;28;20378;-72
2023/07/14 01:00:34;;;;;;;3.45;1.70;;;;;;;;;;5050032;28;20429;-72
2023/07/14 01:03:02;;;;;;;13.63;2.20;;;;;;;;;;5049661;28;20044;-72
2023/07/14 01:05:27;;;;;;;4.85;1.83;;;;;;;;;;5048274;28;20029;-72
2023/07/14 01:07:53;;;;;;;6.07;2.05;;;;;;;;;;5046190;28;20079;-72
2023/07/14 01:10:21;;;;;;;3.85;1.63;;;;;;;;;;5048276;28;20427;-72
2023/07/14 01:12:49;;;;;;;4.68;1.90;;;;;;;;;;5047578;28;21713;-72
2023/07/14 01:15:15;;;;;;;5.88;2.13;;;;;;;;;;5048848;28;20032;-72
2023/07/14 01:17:41;;;;;;;6.47;2.25;;;;;;;;;;5046477;28;20017;-72
2023/07/14 01:20:09;;;;;;;4.65;2.05;;;;;;;;;;5048576;28;20087;-72
2023/07/14 01:22:41;;;;;;;9.43;2.53;;;;;;;;;;5049888;28;20052;-72
2023/07/14 01:25:14;;;;;;;9.27;2.10;;;;;;;;;;5049895;28;20013;-72
2023/07/14 01:27:39;;;;;;;4.90;2.25;;;;;;;;;;5050557;28;20021;-72
2023/07/14 01:30:05;;;;;;;4.83;2.40;;;;;;;;;;5049583;28;20433;-72
2023/07/14 01:32:35;;;;;;;5.40;2.40;;;;;;;;;;5050429;28;20339;-72
2023/07/14 01:35:00;;;;;;;6.80;2.75;;;;;;;;;;5047869;28;20371;-72
2023/07/14 01:37:25;;;;;;;9.05;2.40;;;;;;;;;;5049979;28;20025;-72
2023/07/14 01:39:51;;;;;;;10.15;2.80;;;;;;;;;;5050279;28;20017;-72
2023/07/14 01:42:16;;;;;;;8.57;3.08;;;;;;;;;;5050157;28;20052;-72
2023/07/14 01:44:43;;;;;;;6.75;2.33;;;;;;;;;;5048605;28;20063;-72
2023/07/14 01:47:10;;;;;;;5.93;2.30;;;;;;;;;;5049341;28;20482;-72
2023/07/14 01:49:35;;;;;;;5.97;2.80;;;;;;;;;;5046324;28;20116;-72
2023/07/14 01:52:02;;;;;;;9.87;2.63;;;;;;;;;;5048176;28;20096;-72
2023/07/14 01:54:33;;;;;;;7.13;2.28;;;;;;;;;;5049446;28;20267;-72
2023/07/14 01:56:59;;;;;;;13.18;2.67;;;;;;;;;;5047760;28;20021;-72
2023/07/14 01:59:28;;;;;;;10.02;2.75;;;;;;;;;;5047471;28;20028;-72
2023/07/14 02:01:54;;;;;;;5.70;2.30;;;;;;;;;;5049934;28;20027;-72
2023/07/14 02:04:22;;;;;;;6.72;2.30;;;;;;;;;;5048489;28;20020;-72
2023/07/14 02:06:47;;;;;;;6.93;2.42;;;;;;;;;;5049954;28;20161;-72
2023/07/14 02:09:16;;;;;;;4.70;2.10;;;;;;;;;;5049530;28;20033;-72
2023/07/14 02:11:43;;;;;;;8.13;2.55;;;;;;;;;;5048853;28;20021;-72
2023/07/14 02:14:14;;;;;;;6.40;2.78;;;;;;;;;;5048137;28;20056;-72
2023/07/14 02:16:39;;;;;;;5.82;2.72;;;;;;;;;;5049661;28;20086;-72
2023/07/14 02:19:04;;;;;;;8.63;2.40;;;;;;;;;;5048049;28;20025;-72
2023/07/14 02:21:30;;;;;;;11.35;2.58;;;;;;;;;;5048723;28;20355;-72
2023/07/14 02:23:56;;;;;;;7.18;2.45;;;;;;;;;;5049498;28;20509;-72
2023/07/14 02:26:24;;;;;;;7.50;2.45;;;;;;;;;;5049524;28;20029;-72
2023/07/14 02:28:49;;;;;;;4.70;2.42;;;;;;;;;;5042206;28;20039;-72
2023/07/14 02:31:21;;;;;;;6.40;2.60;;;;;;;;;;5049023;28;20513;-72
2023/07/14 02:33:48;;;;;;;6.13;2.92;;;;;;;;;;5047684;28;20355;-72
2023/07/14 02:36:37;;;;;;;11.50;2.63;;;;;;;;;;5047088;28;20044;-72
2023/07/14 02:39:03;;;;;;;7.55;3.10;;;;;;;;;;5041747;28;20021;-72
2023/07/14 02:41:29;;;;;;;7.82;3.25;;;;;;;;;;5047184;28;20021;-72
2023/07/14 02:43:58;;;;;;;12.38;2.88;;;;;;;;;;5048655;28;20024;-72
2023/07/14 02:46:26;;;;;;;6.28;2.65;;;;;;;;;;5049207;28;20032;-72
2023/07/14 02:48:52;;;;;;;6.18;3.00;;;;;;;;;;5048757;28;20021;-72
2023/07/14 02:51:17;;;;;;;7.22;2.70;;;;;;;;;;5049118;28;20040;-72
2023/07/14 02:53:42;;;;;;;15.10;3.13;;;;;;;;;;5048520;28;20130;-72
2023/07/14 02:56:08;;;;;;;6.63;2.55;;;;;;;;;;5046587;28;20286;-72
2023/07/14 02:58:33;;;;;;;9.10;2.42;;;;;;;;;;5046979;28;20025;-72
2023/07/14 03:00:58;;;;;;;5.38;2.45;;;;;;;;;;5044513;28;20017;-72
2023/07/14 03:03:24;;;;;;;10.55;2.97;;;;;;;;;;5044491;28;20618;-72
2023/07/14 03:05:49;;;;;;;5.33;3.00;;;;;;;;;;5049223;28;20059;-72
2023/07/14 03:08:16;;;;;;;18.35;4.00;;;;;;;;;;5049266;28;20275;-72
2023/07/14 03:10:42;;;;;;;9.05;3.30;;;;;;;;;;5051119;28;20025;-72
2023/07/14 03:13:07;;;;;;;9.05;2.45;;;;;;;;;;5053292;28;20028;-72
2023/07/14 03:15:32;;;;;;;10.82;2.92;;;;;;;;;;5051974;28;20371;-72
2023/07/14 03:17:57;;;;;;;10.37;2.70;;;;;;;;;;5050498;28;20120;-72
2023/07/14 03:20:23;;;;;;;7.33;2.93;;;;;;;;;;5053265;28;20281;-72
2023/07/14 03:22:48;;;;;;;9.68;2.33;;;;;;;;;;5053569;28;20256;-72
2023/07/14 03:25:13;;;;;;;5.05;2.97;;;;;;;;;;5048865;28;20021;-72
2023/07/14 03:27:38;;;;;;;11.32;2.90;;;;;;;;;;5048890;28;20037;-72
2023/07/14 03:30:04;;;;;;;9.15;2.63;;;;;;;;;;5046754;28;20017;-72
2023/07/14 03:32:29;;;;;;;5.65;2.50;;;;;;;;;;5051187;28;20013;-72
2023/07/14 03:34:54;;;;;;;9.60;2.80;;;;;;;;;;5051410;28;20016;-72
2023/07/14 03:37:19;;;;;;;7.13;2.90;;;;;;;;;;5052338;28;20572;-72
2023/07/14 03:39:45;;;;;;;6.53;3.10;;;;;;;;;;5052880;28;20268;-72
2023/07/14 03:42:10;;;;;;;8.40;2.75;;;;;;;;;;5051994;28;20660;-72
2023/07/14 03:44:35;;;;;;;8.10;2.93;;;;;;;;;;5050433;28;20029;-72
2023/07/14 03:47:02;;;;;;;9.00;2.87;;;;;;;;;;5051058;28;20286;-72
2023/07/14 03:49:27;;;;;;;11.48;2.65;;;;;;;;;;5051425;28;20282;-72
2023/07/14 03:51:53;;;;;;;7.75;2.90;;;;;;;;;;5048810;28;20448;-72
2023/07/14 03:54:18;;;;;;;10.23;3.15;;;;;;;;;;5046074;28;20450;-72
2023/07/14 03:56:44;;;;;;;8.05;2.30;;;;;;;;;;5049979;28;20489;-72
2023/07/14 03:59:09;;;;;;;5.28;2.55;;;;;;;;;;5051861;28;20025;-72
2023/07/14 04:01:34;;;;;;;7.55;2.90;;;;;;;;;;5051770;28;20474;-72
2023/07/14 04:04:00;;;;;;;7.77;2.73;;;;;;;;;;5051632;28;20017;-72
2023/07/14 04:06:25;;;;;;;7.93;2.80;;;;;;;;;;5051698;28;20367;-72
2023/07/14 04:08:51;;;;;;;5.57;2.80;;;;;;;;;;5050100;28;20025;-72
2023/07/14 04:11:16;;;;;;;8.52;2.70;;;;;;;;;;5049440;28;20306;-72
2023/07/14 04:13:41;;;;;;;5.15;2.58;;;;;;;;;;5058707;28;20363;-72
2023/07/14 04:16:09;;;;;;;5.97;2.40;;;;;;;;;;5051809;28;20666;-72
2023/07/14 04:18:35;;;;;;;7.05;2.40;;;;;;;;;;5048189;28;20294;-72
2023/07/14 04:21:00;;;;;;;5.88;2.72;;;;;;;;;;5050716;28;20091;-72
2023/07/14 04:23:26;;;;;;;5.20;2.47;;;;;;;;;;5051321;28;20025;-72
2023/07/14 04:25:51;;;;;;;4.10;2.30;;;;;;;;;;5049955;28;20112;-72
2023/07/14 04:28:16;;;;;;;3.30;1.90;;;;;;;;;;5049005;28;20052;-72
2023/07/14 04:30:41;;;;;;;5.30;2.87;;;;;;;;;;5046004;28;20033;-72
2023/07/14 04:33:07;;;;;;;7.13;2.70;;;;;;;;;;5048521;28;20656;-72
2023/07/14 04:35:32;;;;;;;9.40;2.83;;;;;;;;;;5051503;28;20319;-72
2023/07/14 04:37:58;;;;;;;8.50;2.60;;;;;;;;;;5050709;28;20021;-72
2023/07/14 04:40:24;;;;;;;5.43;2.22;;;;;;;;;;5046562;28;20961;-72
2023/07/14 04:42:49;;;;;;;4.68;1.95;;;;;;;;;;5049345;28;20477;-72
2023/07/14 04:45:16;;;;;;;5.43;2.60;;;;;;;;;;5047992;28;20082;-72
2023/07/14 04:47:42;;;;;;;4.05;1.73;;;;;;;;;;5049760;28;20749;-72
2023/07/14 04:50:07;;;;;;;4.57;2.45;;;;;;;;;;5050773;28;20031;-72
2023/07/14 04:52:34;;;;;;;11.07;2.58;;;;;;;;;;5051302;28;20465;-72
2023/07/14 04:54:59;;;;;;;3.72;2.30;;;;;;;;;;5049772;28;20013;-72
2023/07/14 04:57:24;;;;;;;9.83;2.70;;;;;;;;;;5048640;28;20036;-72
2023/07/14 04:59:49;;;;;;;7.47;2.30;;;;;;;;;;5049615;28;20372;-72
2023/07/14 05:02:14;;;;;;;8.27;2.10;;;;;;;;;;5050432;28;20271;-72
2023/07/14 05:04:42;;;;;;;4.78;2.30;;;;;;;;;;5051317;28;20279;-72
2023/07/14 05:07:07;;;;;;;8.18;2.75;;;;;;;;;;5050321;28;20110;-72
2023/07/14 05:09:34;;;;;;;12.77;2.38;;;;;;;;;;5048038;28;20084;-72
2023/07/14 05:11:59;;;;;;;4.80;2.30;;;;;;;;;;5048754;28;20529;-72
2023/07/14 05:14:25;;;;;;;6.57;2.70;;;;;;;;;;5048203;28;20231;-72
2023/07/14 05:16:51;;;;;;;8.70;2.50;;;;;;;;;;5050458;28;20327;-72
2023/07/14 05:19:16;;;;;;;4.93;2.47;;;;;;;;;;5047435;28;20024;-72
2023/07/14 05:21:41;;;;;;;4.60;1.80;;;;;;;;;;5047456;28;20302;-72
2023/07/14 05:24:06;;;;;;;6.30;2.28;;;;;;;;;;5046533;28;20581;-72
2023/07/14 05:26:31;;;;;;;7.60;1.98;;;;;;;;;;5047015;28;20037;-72
2023/07/14 05:28:57;;;;;;;7.80;2.30;;;;;;;;;;5047689;28;20071;-72
2023/07/14 05:31:22;;;;;;;5.53;2.33;;;;;;;;;;5047167;28;20268;-71
2023/07/14 05:33:47;;;;;;;8.57;2.53;;;;;;;;;;5045190;28;20039;-71
2023/07/14 05:36:13;;;;;;;8.02;2.42;;;;;;;;;;5045054;28;20291;-72
2023/07/14 05:38:38;;;;;;;3.85;1.88;;;;;;;;;;5047119;28;20029;-72
2023/07/14 05:41:04;;;;;;;5.18;2.25;;;;;;;;;;5048621;28;20021;-72
2023/07/14 05:43:30;;;;;;;4.43;2.00;;;;;;;;;;5046989;28;20023;-72
2023/07/14 05:45:55;;;;;;;8.63;1.90;;;;;;;;;;5047805;28;20028;-72
2023/07/14 05:48:20;;;;;;;7.70;1.95;;;;;;;;;;5046731;28;20025;-72
2023/07/14 05:50:46;;;;;;;5.03;1.57;;;;;;;;;;5036712;28;20474;-72
2023/07/14 05:53:11;;;;;;;7.05;2.50;;;;;;;;;;5039574;28;20283;-73
2023/07/14 05:55:36;;;;;;;11.77;2.63;;;;;;;;;;5049573;28;20479;-71
2023/07/14 05:58:02;;;;;;;10.63;2.42;;;;;;;;;;5046371;28;20025;-72
2023/07/14 06:00:29;;;;;;;6.80;2.30;;;;;;;;;;5049143;28;20386;-72
2023/07/14 06:02:54;;;;;;;5.72;2.20;;;;;;;;;;5048317;28;20051;-72
2023/07/14 06:05:19;;;;;;;6.57;2.17;;;;;;;;;;5047071;28;20048;-72
2023/07/14 06:07:44;;;;;;;5.07;2.13;;;;;;;;;;5046674;28;20628;-72
2023/07/14 06:10:10;;;;;;;5.38;1.90;;;;;;;;;;5046900;28;20047;-72
2023/07/14 06:12:36;;;;;;;3.75;1.75;;;;;;;;;;5033958;28;20501;-73
2023/07/14 06:15:01;;;;;;;6.13;1.90;;;;;;;;;;5040324;28;20017;-72
2023/07/14 06:17:26;;;;;;;4.93;2.25;;;;;;;;;;5047771;28;20017;-72
2023/07/14 06:19:52;;;;;;;6.15;1.88;;;;;;;;;;5048972;28;20418;-72
2023/07/14 06:22:17;;;;;;;3.55;1.63;;;;;;;;;;5046620;28;20083;-72
2023/07/14 06:24:42;;;;;;;10.00;2.28;;;;;;;;;;5046960;28;20044;-71
2023/07/14 06:27:08;;;;;;;9.85;2.10;;;;;;;;;;5046876;28;20028;-71
2023/07/14 06:29:33;;;;;;;2.22;1.17;;;;;;;;;;5048883;28;20254;-71
2023/07/14 06:31:59;;;;;;;7.53;2.10;;;;;;;;;;5039265;28;20028;-72
2023/07/14 06:34:25;;;;;;;4.10;1.50;;;;;;;;;;5045805;28;20275;-72
2023/07/14 06:36:50;;;;;;;5.60;1.85;;;;;;;;;;5043831;28;20030;-72
2023/07/14 06:39:15;;;;;;;3.77;1.73;;;;;;;;;;5048040;28;20044;-72
2023/07/14 06:41:40;;;;;;;7.97;2.57;;;;;;;;;;5049846;28;20294;-72
2023/07/14 06:44:06;;;;;;;3.23;1.60;;;;;;;;;;5051980;28;20328;-72
2023/07/14 06:46:31;;;;;;;5.45;1.95;;;;;;;;;;5053555;28;20013;-72
2023/07/14 06:48:57;;;;;;;6.87;1.80;;;;;;;;;;5055792;28;20576;-72
2023/07/14 06:51:22;;;;;;;5.55;1.80;;;;;;;;;;5053423;28;20270;-72
2023/07/14 06:53:49;;;;;;;8.17;1.50;;;;;;;;;;5053557;28;20102;-72
2023/07/14 06:56:14;;;;;;;6.72;1.67;;;;;;;;;;5054940;28;20764;-72
2023/07/14 06:58:40;;;;;;;2.42;1.35;;;;;;;;;;5052249;28;20071;-72
2023/07/14 07:01:05;;;;;;;8.38;2.47;;;;;;;;;;5054105;28;20009;-72
2023/07/14 07:03:30;;;;;;;4.72;1.88;;;;;;;;;;5055047;28;20060;-72
2023/07/14 07:05:56;;;;;;;10.13;2.00;;;;;;;;;;5053349;28;20035;-72
2023/07/14 07:08:21;;;;;;;3.90;1.40;;;;;;;;;;5052091;28;20326;-72
2023/07/14 07:10:48;;;;;;;4.63;1.52;;;;;;;;;;5055496;28;20082;-72
2023/07/14 07:13:13;;;;;;;2.95;1.50;;;;;;;;;;5054729;28;20029;-72
2023/07/14 07:15:39;;;;;;;3.85;1.35;;;;;;;;;;5052062;28;20027;-72
2023/07/14 07:18:04;;;;;;;3.55;1.52;;;;;;;;;;5054475;28;20032;-73
2023/07/14 07:20:30;;;;;;;4.07;1.30;;;;;;;;;;5052133;28;20017;-72
2023/07/14 07:22:55;;;;;;;7.43;1.60;;;;;;;;;;5050062;28;20036;-72
2023/07/14 07:25:20;;;;;;;2.10;0.55;;;;;;;;;;5052914;28;20028;-73
2023/07/14 07:27:45;;;;;;;3.33;1.63;;;;;;;;;;5049429;28;20048;-72
2023/07/14 07:30:11;;;;;;;4.07;1.58;;;;;;;;;;5052122;28;20849;-72
2023/07/14 07:32:36;;;;;;;3.47;1.45;;;;;;;;;;5053264;28;20032;-72
2023/07/14 07:35:03;;;;;;;3.75;1.70;;;;;;;;;;5053164;28;20021;-72
2023/07/14 07:37:28;;;;;;;4.53;1.13;;;;;;;;;;5053425;28;20100;-72
2023/07/14 07:39:54;;;;;;;4.00;1.58;;;;;;;;;;5049550;28;20754;-72
2023/07/14 07:42:19;;;;;;;3.85;1.10;;;;;;;;;;5050727;28;20425;-72
2023/07/14 07:44:45;;;;;;;4.78;1.58;;;;;;;;;;5053764;28;20108;-72
2023/07/14 07:47:10;;;;;;;4.10;1.33;;;;;;;;;;5051182;28;20033;-73
2023/07/14 07:49:36;;;;;;;4.00;1.60;;;;;;;;;;5053208;28;20033;-72
2023/07/14 07:52:01;;;;;;;5.88;1.70;;;;;;;;;;5050804;28;20071;-73
2023/07/14 07:54:26;;;;;;;4.70;1.73;;;;;;;;;;5054099;28;20020;-74
2023/07/14 07:56:51;;;;;;;3.20;0.90;;;;;;;;;;5047026;28;20524;-73
2023/07/14 07:59:16;;;;;;;4.05;1.33;;;;;;;;;;5047419;28;20013;-73
2023/07/14 08:01:42;;;;;;;3.53;1.23;;;;;;;;;;5046903;28;20024;-73
2023/07/14 08:04:08;;;;;;;3.70;1.40;;;;;;;;;;5045967;28;20021;-73
2023/07/14 08:06:36;;;;;;;5.05;1.40;;;;;;;;;;5045555;28;20494;-73
2023/07/14 08:09:01;;;;;;;3.67;1.02;;;;;;;;;;5042444;28;20020;-73
2023/07/14 08:11:26;;;;;;;7.83;1.63;;;;;;;;;;5045811;28;20017;-72
2023/07/14 08:13:52;;;;;;;3.27;1.20;;;;;;;;;;5048629;28;20280;-73
2023/07/14 08:16:17;;;;;;;4.50;1.33;;;;;;;;;;5046514;28;20156;-72
2023/07/14 08:18:43;;;;;;;4.03;1.38;;;;;;;;;;5044509;28;20035;-72
2023/07/14 08:21:08;;;;;;;3.22;1.30;;;;;;;;;;5047219;28;20486;-73
2023/07/14 08:23:35;;;;;;;3.83;1.50;;;;;;;;;;5047219;28;20056;-72
2023/07/14 08:26:02;;;;;;;5.80;1.42;;;;;;;;;;5049574;28;20055;-72
2023/07/14 08:28:27;;;;;;;2.72;0.75;;;;;;;;;;5045277;28;20020;-72
2023/07/14 08:30:55;;;;;;;6.85;2.25;;;;;;;;;;5044868;28;20087;-73
2023/07/14 08:33:21;;;;;;;3.35;1.50;;;;;;;;;;5050120;28;20020;-72
2023/07/14 08:35:49;;;;;;;4.22;1.50;;;;;;;;;;5050005;28;20029;-73
2023/07/14 08:38:15;;;;;;;7.45;1.27;;;;;;;;;;5048056;28;20052;-73
2023/07/14 08:40:45;;;;;;;3.07;1.00;;;;;;;;;;5048517;28;20506;-72
2023/07/14 08:43:10;;;;;;;;;;;;;;;;;;5048606;28;20017;-73
2023/07/14 08:45:45;;;;;;;4.22;1.63;;;;;;;;;;5046745;28;19908;-72
2023/07/14 08:48:22;;;;;;;3.92;1.30;;;;;;;;;;5047701;28;20021;-72
2023/07/14 08:50:50;;;;;;;2.53;1.25;;;;;;;;;;5063913;28;20029;-72
2023/07/14 08:53:19;;;;;;;6.22;1.17;;;;;;;;;;5045648;28;20570;-72
2023/07/14 08:55:44;;;;;;;8.40;1.97;;;;;;;;;;5048337;28;20036;-72
2023/07/14 08:58:13;;;;;;;6.07;1.35;;;;;;;;;;5046372;28;20022;-72
2023/07/14 09:00:42;;;;;;;2.28;1.00;;;;;;;;;;5049536;28;20025;-72
2023/07/14 09:03:18;;;;;;;4.90;1.48;;;;;;;;;;5049101;28;20025;-73
2023/07/14 09:06:01;;;;;;;4.88;1.55;;;;;;;;;;5050225;28;20037;-72
2023/07/14 09:08:27;;;;;;;2.85;1.38;;;;;;;;;;5044577;28;20056;-72
2023/07/14 09:11:05;;;;;;;4.82;1.63;;;;;;;;;;5048187;28;20025;-72
2023/07/14 09:13:42;;;;;;;3.97;1.50;;;;;;;;;;5046817;28;20551;-72
2023/07/14 09:16:09;;;;;;;8.20;1.08;;;;;;;;;;5044968;28;20041;-73
2023/07/14 09:18:48;;;;;;;3.35;1.02;;;;;;;;;;5045950;28;20029;-73
2023/07/14 09:21:28;;;;;;;3.55;1.80;;;;;;;;;;5043991;28;20028;-72
2023/07/14 09:23:54;;;;;;;3.70;1.65;;;;;;;;;;5044925;28;20367;-73
2023/07/14 09:26:39;;;;;;;3.83;1.92;;;;;;;;;;5046192;28;20033;-72
2023/07/14 09:29:23;;;;;;;10.35;1.95;;;;;;;;;;5037532;28;20041;-73
2023/07/14 09:32:01;;;;;;;3.28;1.08;;;;;;;;;;5045000;28;20048;-72
2023/07/14 09:34:29;;;;;;;6.63;1.33;;;;;;;;;;5047170;28;20251;-72
2023/07/14 09:36:56;;;;;;;7.18;1.40;;;;;;;;;;5047624;28;20028;-73
2023/07/14 09:39:39;;;;;;;3.85;1.65;;;;;;;;;;5047732;28;20036;-72
2023/07/14 09:42:07;;;;;;;8.00;1.70;;;;;;;;;;5043460;28;20025;-73
2023/07/14 09:44:32;;;;;;;4.13;1.88;;;;;;;;;;5048623;28;20032;-72
2023/07/14 09:46:58;;;;;;;1.95;0.77;;;;;;;;;;5045597;28;20612;-72
2023/07/14 09:49:33;;;;;;;4.93;1.30;;;;;;;;;;5048989;28;20032;-73
2023/07/14 09:52:00;;;;;;;3.55;1.48;;;;;;;;;;5045590;28;20065;-72
2023/07/14 09:54:25;;;;;;;4.63;1.33;;;;;;;;;;5047544;28;20025;-72
2023/07/14 09:56:59;;;;;;;7.47;1.40;;;;;;;;;;5046433;28;20036;-73
2023/07/14 09:59:24;;;;;;;7.30;1.80;;;;;;;;;;5049252;28;20108;-73
2023/07/14 10:01:56;;;;;;;4.60;1.52;;;;;;;;;;5046518;28;20092;-73
2023/07/14 10:04:25;;;;;;;3.95;1.40;;;;;;;;;;5043577;28;20024;-72
2023/07/14 10:06:50;;;;;;;3.42;1.40;;;;;;;;;;5059608;28;20115;-72
2023/07/14 10:09:19;;;;;;;8.17;1.60;;;;;;;;;;5042580;28;20542;-72
2023/07/14 10:11:46;;;;;;;4.68;1.42;;;;;;;;;;5045880;28;21217;-72
2023/07/14 10:14:28;;;;;;;9.27;1.70;;;;;;;;;;5045976;28;20025;-72
2023/07/14 10:16:56;;;;;;;3.08;1.92;;;;;;;;;;5044571;28;20025;-72
2023/07/14 10:19:21;;;;;;;6.60;1.52;;;;;;;;;;5044867;28;20021;-72
2023/07/14 10:21:57;;;;;;;2.53;1.30;;;;;;;;;;5047997;28;20024;-73
2023/07/14 10:24:24;;;;;;;4.18;1.30;;;;;;;;;;5046423;28;20095;-72
2023/07/14 10:27:00;;;;;;;4.43;1.73;;;;;;;;;;5048722;28;20021;-73
2023/07/14 10:29:27;;;;;;;2.05;0.65;;;;;;;;;;5047288;28;20024;-72
2023/07/14 10:31:55;;;;;;;5.80;2.22;;;;;;;;;;5046985;28;20560;-72
2023/07/14 10:34:36;;;;;;;7.32;1.63;;;;;;;;;;5044064;28;20029;-73
2023/07/14 10:37:04;;;;;;;4.70;1.70;;;;;;;;;;5048577;28;20024;-72
2023/07/14 10:39:35;;;;;;;5.93;2.10;;;;;;;;;;5042095;28;20017;-73
2023/07/14 10:42:00;;;;;;;4.80;1.50;;;;;;;;;;5045784;28;20013;-74
2023/07/14 10:44:38;;;;;;;5.20;1.75;;;;;;;;;;5047757;28;20505;-73
2023/07/14 10:47:23;;;;;;;12.10;2.65;;;;;;;;;;5047634;28;20112;-73
2023/07/14 10:49:57;;;;;;;5.20;1.95;;;;;;;;;;5048493;28;20701;-73
2023/07/14 10:52:37;;;;;;;5.03;1.45;;;;;;;;;;5046550;28;20071;-73
2023/07/14 10:55:13;;;;;;;9.93;1.77;;;;;;;;;;5045215;28;20056;-73
2023/07/14 10:57:42;;;;;;;5.00;1.60;;;;;;;;;;5045514;28;20036;-73
2023/07/14 11:00:19;;;;;;;4.40;1.95;;;;;;;;;;5042171;28;20099;-73
2023/07/14 11:02:47;;;;;;;4.10;1.15;;;;;;;;;;5045684;28;20021;-73
2023/07/14 11:05:14;;;;;;;4.18;1.83;;;;;;;;;;5047371;28;20430;-73
2023/07/14 11:07:40;;;;;;;8.75;1.70;;;;;;;;;;5044817;28;20079;-73
2023/07/14 11:10:12;;;;;;;6.43;1.37;;;;;;;;;;5045562;28;20021;-73
2023/07/14 11:12:46;;;;;;;5.35;1.50;;;;;;;;;;5044839;28;20024;-74
2023/07/14 11:15:11;;;;;;;1.35;0.95;;;;;;;;;;5043776;28;20032;-73
2023/07/14 11:17:41;;;;;;;5.68;1.98;;;;;;;;;;5045331;28;20025;-73
2023/07/14 11:20:22;;;;;;;2.67;1.33;;;;;;;;;;5044211;28;20025;-73
2023/07/14 11:23:03;;;;;;;3.45;1.35;;;;;;;;;;5046212;28;20021;-73
2023/07/14 11:25:38;;;;;;;4.22;1.73;;;;;;;;;;5044164;28;20481;-73
2023/07/14 11:28:17;;;;;;;1.88;0.80;;;;;;;;;;5044167;28;20474;-73
2023/07/14 11:30:45;;;;;;;3.70;2.03;;;;;;;;;;5049098;28;20056;-73
2023/07/14 11:33:25;;;;;;;3.55;1.73;;;;;;;;;;5049693;28;20025;-73
2023/07/14 11:35:55;;;;;;;2.65;0.98;;;;;;;;;;5048281;28;20025;-73
2023/07/14 11:38:44;;;;;;;3.35;1.27;;;;;;;;;;5051052;28;20569;-73
2023/07/14 11:41:10;;;;;;;2.95;1.55;;;;;;;;;;5048047;28;20619;-73
2023/07/14 11:43:35;;;;;;;4.30;1.98;;;;;;;;;;5050435;28;20051;-73
2023/07/14 11:46:04;;;;;;;3.35;1.83;;;;;;;;;;5048068;28;20052;-73
2023/07/14 11:48:33;;;;;;;6.20;1.85;;;;;;;;;;5048057;28;20079;-73
2023/07/14 11:51:03;;;;;;;4.13;2.17;;;;;;;;;;5051630;28;20029;-73
2023/07/14 11:53:31;;;;;;;5.75;2.40;;;;;;;;;;5050586;28;20051;-73
2023/07/14 11:56:10;;;;;;;8.32;1.75;;;;;;;;;;5048026;28;20037;-73
2023/07/14 11:58:36;;;;;;;4.23;2.00;;;;;;;;;;5049071;28;20017;-73
2023/07/14 12:01:06;;;;;;;5.40;1.43;;;;;;;;;;5047522;28;20264;-72
2023/07/14 12:03:39;;;;;;;3.97;1.70;;;;;;;;;;5049665;28;20685;-73
2023/07/14 12:06:14;;;;;;;5.80;1.92;;;;;;;;;;5050836;28;20377;-73
2023/07/14 12:08:40;;;;;;;4.35;1.75;;;;;;;;;;5048184;28;20037;-73
2023/07/14 12:11:23;;;;;;;5.80;2.40;;;;;;;;;;5049939;28;20025;-73
2023/07/14 12:13:50;;;;;;;7.45;2.03;;;;;;;;;;5049064;28;20051;-73
2023/07/14 12:16:24;;;;;;;4.78;2.00;;;;;;;;;;5049715;28;20031;-73
2023/07/14 12:19:01;;;;;;;6.78;2.10;;;;;;;;;;5047978;28;20025;-73
2023/07/14 12:21:32;;;;;;;4.55;2.30;;;;;;;;;;5048029;28;20021;-73
2023/07/14 12:24:00;;;;;;;3.42;1.77;;;;;;;;;;5045807;28;20029;-73
2023/07/14 12:26:31;;;;;;;3.70;1.75;;;;;;;;;;5048663;28;20654;-73
2023/07/14 12:28:59;;;;;;;5.65;1.40;;;;;;;;;;5049626;28;20048;-73
2023/07/14 12:31:25;;;;;;;7.10;1.95;;;;;;;;;;5049720;28;20033;-73
2023/07/14 12:33:54;;;;;;;7.37;2.70;;;;;;;;;;5047850;28;20021;-73
2023/07/14 12:36:20;;;;;;;3.08;1.90;;;;;;;;;;5047748;28;20287;-73
2023/07/14 12:38:47;;;;;;;3.13;1.25;;;;;;;;;;5049392;28;20059;-73
2023/07/14 12:41:14;;;;;;;2.90;1.17;;;;;;;;;;5049507;28;20021;-73
2023/07/14 12:43:41;;;;;;;9.00;2.22;;;;;;;;;;5047858;28;20024;-73
2023/07/14 12:46:23;;;;;;;4.72;2.08;;;;;;;;;;5048571;28;20118;-73
2023/07/14 12:48:49;;;;;;;2.55;1.77;;;;;;;;;;5047997;28;20086;-74
2023/07/14 12:51:16;;;;;;;5.75;2.42;;;;;;;;;;5047263;28;20016;-73
2023/07/14 12:53:48;;;;;;;5.50;2.15;;;;;;;;;;5047134;28;20052;-74
2023/07/14 12:56:14;;;;;;;4.85;2.13;;;;;;;;;;5046536;28;20032;-73
2023/07/14 12:58:39;;;;;;;5.97;1.73;;;;;;;;;;5047189;28;20108;-73
2023/07/14 13:01:04;;;;;;;4.28;1.70;;;;;;;;;;5046910;28;20096;-73
2023/07/14 13:03:35;;;;;;;4.23;2.00;;;;;;;;;;5047846;28;20432;-73
2023/07/14 13:06:00;;;;;;;4.57;2.05;;;;;;;;;;5048662;28;20279;-73
2023/07/14 13:08:27;;;;;;;5.05;1.70;;;;;;;;;;5048813;28;20029;-73
2023/07/14 13:10:53;;;;;;;2.08;0.73;;;;;;;;;;5047016;28;20035;-73
2023/07/14 13:13:26;;;;;;;6.43;1.65;;;;;;;;;;5049068;28;20104;-74
2023/07/14 13:15:52;;;;;;;6.25;2.00;;;;;;;;;;5045780;28;20048;-73
2023/07/14 13:18:30;;;;;;;3.25;1.50;;;;;;;;;;5046581;28;20040;-73
2023/07/14 13:20:56;;;;;;;3.05;1.73;;;;;;;;;;5047342;28;20013;-73
2023/07/14 13:23:24;;;;;;;11.65;1.77;;;;;;;;;;5049912;28;20035;-73
2023/07/14 13:25:58;;;;;;;5.15;1.63;;;;;;;;;;5045519;28;20033;-73
2023/07/14 13:28:26;;;;;;;3.60;1.23;;;;;;;;;;5048271;28;20031;-73
2023/07/14 13:30:51;;;;;;;6.07;1.98;;;;;;;;;;5048660;28;20458;-73
2023/07/14 13:33:18;;;;;;;10.13;1.90;;;;;;;;;;5047679;28;20115;-73
2023/07/14 13:35:54;;;;;;;6.10;2.17;;;;;;;;;;5043362;28;20687;-73
2023/07/14 13:38:19;;;;;;;2.88;1.10;;;;;;;;;;5046963;28;20985;-73
2023/07/14 13:40:49;;;;;;;2.37;1.30;;;;;;;;;;5047612;28;20021;-73
2023/07/14 13:43:16;;;;;;;3.53;1.42;;;;;;;;;;5049048;28;20013;-73
2023/07/14 13:45:44;;;;;;;4.90;0.90;;;;;;;;;;5046899;28;20052;-73
2023/07/14 13:48:23;;;;;;;2.47;0.85;;;;;;;;;;5050121;28;20095;-73
2023/07/14 13:50:48;;;;;;;4.82;1.42;;;;;;;;;;5045995;28;20021;-73
2023/07/14 13:53:14;;;;;;;5.53;1.70;;;;;;;;;;5044905;28;20220;-73
2023/07/14 13:58:41;;;;;;;5.75;1.60;;;;;;;;;;5042643;28;20027;-73
2023/07/14 14:01:08;;;;;;;6.13;1.60;;;;;;;;;;5048447;28;20017;-73
2023/07/14 14:03:33;;;;;;;7.80;1.48;;;;;;;;;;5039105;28;20044;-73
2023/07/14 14:05:58;;;;;;;4.60;1.60;;;;;;;;;;5047762;28;20386;-73
2023/07/14 14:08:24;;;;;;;1.47;1.03;;;;;;;;;;5044186;28;20118;-73
2023/07/14 14:10:49;;;;;;;1.55;0.95;;;;;;;;;;5040321;28;20045;-73
2023/07/14 14:13:14;;;;;;;4.87;1.33;;;;;;;;;;5044653;28;20540;-73
2023/07/14 14:15:41;;;;;;;4.00;1.45;;;;;;;;;;5046736;28;20796;-73
2023/07/14 14:18:09;;;;;;;2.13;0.88;;;;;;;;;;5045190;28;20100;-73
2023/07/14 14:20:34;;;;;;;4.15;1.88;;;;;;;;;;5043590;28;20025;-73
2023/07/14 14:23:05;;;;;;;3.23;1.13;;;;;;;;;;5047471;28;20023;-73
2023/07/14 14:25:30;;;;;;;5.63;1.17;;;;;;;;;;5048386;28;20301;-73
2023/07/14 14:27:56;;;;;;;4.55;1.58;;;;;;;;;;5049209;28;20609;-73
2023/07/14 14:30:26;;;;;;;3.95;1.50;;;;;;;;;;5045594;28;20048;-73
2023/07/14 14:32:58;;;;;;;4.75;1.77;;;;;;;;;;5043987;28;20509;-73
2023/07/14 14:35:24;;;;;;;7.18;2.03;;;;;;;;;;5042833;28;20482;-72
2023/07/14 14:37:55;;;;;;;5.90;1.98;;;;;;;;;;5042192;28;20032;-72
2023/07/14 14:40:20;;;;;;;4.03;1.63;;;;;;;;;;5046585;28;20017;-72
2023/07/14 14:42:45;;;;;;;6.15;1.42;;;;;;;;;;5047319;28;20025;-72
2023/07/14 14:45:29;;;;;;;7.83;3.00;;;;;;;;;;5047731;28;20107;-73
2023/07/14 14:47:54;;;;;;;8.43;1.77;;;;;;;;;;5043862;28;20025;-72
2023/07/14 14:50:21;;;;;;;5.00;1.87;;;;;;;;;;5043143;28;20024;-73